タンソンニャット国際空港 (ホーチミン)の過去48時間の天気

タンソンニャット国際空港 (ホーチミン) (Ho Chi Minh)

現在時刻: 12/4 12:47 +07 (12/4 05:47 UTC) 以下の時間は現地時間です。

過去48時間のMETAR気象情報
時間 風向 風速(m/s) 視程 気温(℃) 湿度(%) 気圧(hPa) 天気現象
4 12:30 不定 2 10km以上 32 36 1009
4 12:00 東北東 2 10km以上 31 38 1009
4 11:30 北北東 2 10km以上 30 38 1010
4 11:00 3 10km以上 30 38 1010
4 10:30 北東 4 10km以上 29 40 1010
4 10:00 東北東 4 10km以上 28 42 1011
4 09:30 北東 4 10km以上 27 48 1011
4 09:00 北東 4 10km以上 27 48 1011
4 08:30 北東 4 10km以上 26 51 1011
4 08:00 北北東 3 10km以上 24 57 1011
4 07:30 北北東 3 10km以上 23 65 1011
4 07:00 北北東 3 10km以上 23 65 1011
4 06:30 北北東 3 10km以上 22 69 1011
4 06:00 3 10km以上 22 69 1010
4 05:30 3 10km以上 22 69 1010
4 05:00 2 10km以上 22 69 1010
4 04:30 2 10km以上 22 69 1010
4 04:00 3 9000m 22 69 1010
4 03:30 北北東 4 9000m 23 65 1009
4 03:00 北北東 3 9000m 23 65 1009
4 02:30 北北東 3 9000m 23 65 1010
4 02:00 3 9000m 23 69 1010
4 01:30 北北東 3 9000m 23 65 1010
4 01:00 北北東 3 10km以上 24 65 1010
4 00:30 不定 2 10km以上 24 65 1010
4 00:00 不定 1 10km以上 24 65 1011
3 23:30 不定 2 10km以上 25 61 1011
3 23:00 不定 2 10km以上 25 61 1011
3 22:30 3 10km以上 26 58 1011
3 22:00 北北東 3 10km以上 26 58 1011
3 21:30 北北東 4 10km以上 27 51 1011
3 21:00 北北東 4 10km以上 27 51 1011
3 20:30 北東 4 10km以上 27 54 1011
3 20:00 2 10km以上 28 55 1010
3 19:30 東南東 4 10km以上 28 70 1010
3 19:00 東南東 3 10km以上 29 66 1009
3 18:30 東北東 2 10km以上 30 49 1009
3 18:00 3 10km以上 30 49 1009
3 17:30 北北西 3 10km以上 31 46 1008
3 17:00 不定 2 10km以上 31 46 1008
3 16:30 不定 2 10km以上 32 43 1007
3 16:00 北西 3 10km以上 32 38 1007
3 15:30 北北東 2 10km以上 33 38 1007
3 15:00 不定 2 10km以上 33 38 1007
3 14:30 3 10km以上 32 41 1007
3 14:00 西北西 2 10km以上 32 43 1007
3 13:30 北東 2 10km以上 32 43 1008
3 13:00 不定 2 10km以上 32 43 1008
3 12:30 不定 1 10km以上 32 43 1009
3 12:00 西 2 10km以上 31 43 1010
3 11:30 北西 2 10km以上 31 46 1010
3 11:00 不定 1 10km以上 30 52 1011
3 10:30 北東 2 10km以上 30 52 1011
3 10:00 不定 2 10km以上 29 55 1011
3 09:30 北東 2 10km以上 28 62 1011
3 09:00 東北東 3 10km以上 27 62 1011
3 08:30 北東 3 10km以上 27 62 1011
3 08:00 東北東 2 10km以上 25 69 1011
3 07:30 北東 2 10km以上 25 69 1011
3 07:00 不定 1 10km以上 24 74 1010
3 06:30 北東 1 8000m 23 83 1010
3 06:00 北東 2 8000m 22 83 1009
3 05:30 北北東 2 8000m 23 78 1009
3 05:00 北東 2 8000m 23 78 1009
3 04:30 北北東 2 8000m 23 78 1009
3 04:00 北北東 3 10km以上 24 74 1009
3 03:30 2 10km以上 24 74 1009
3 03:00 北北東 2 10km以上 24 78 1009
3 02:30 北北東 2 10km以上 24 78 1009
3 02:00 北東 2 10km以上 24 78 1009
3 01:30 東北東 2 10km以上 24 78 1009
3 01:00 北北東 3 10km以上 25 74 1010
3 00:30 北北東 3 10km以上 25 74 1010
3 00:00 北北東 3 10km以上 25 78 1011
2 23:30 北北東 3 10km以上 26 74 1011
2 23:00 北北東 3 10km以上 26 74 1011
2 22:30 北北東 3 10km以上 27 70 1011
2 22:00 北北東 4 10km以上 27 70 1011
2 21:30 北北東 3 10km以上 28 66 1011
2 21:00 北東 3 10km以上 28 70 1011
2 20:30 北東 4 10km以上 27 79 1011
2 20:00 北北東 3 10km以上 28 70 1010
2 19:30 不定 2 10km以上 29 70 1010
2 19:00 南東 3 10km以上 29 70 1009
2 18:30 2 10km以上 29 74 1009
2 18:00 不定 1 8000m 28 84 1008 弱いしゅう雨
2 17:30 2 10km以上 30 66 1008
2 17:00 南東 2 10km以上 31 62 1007
2 16:30 不定 1 10km以上 32 59 1007
2 16:00 不定 2 10km以上 32 52 1007
2 15:30 北東 2 10km以上 32 52 1007
2 15:00 不定 1 10km以上 33 49 1007
2 14:30 不定 2 10km以上 32 49 1007
2 14:00 不定 2 10km以上 33 49 1007
2 13:30 不定 2 10km以上 33 46 1008
2 13:00 東南東 3 10km以上 33 49 1009
VVTS 040530Z VRB03KT 9999 FEW020 32/15 Q1009 NOSIG
VVTS 040500Z 07004KT 360V130 9999 FEW020 31/15 Q1009 NOSIG
VVTS 040430Z 02004KT 330V140 9999 FEW020 30/14 Q1010 NOSIG
VVTS 040400Z VRB05KT 9999 FEW020 30/14 Q1010 NOSIG
VVTS 040330Z 05007KT 020V100 9999 FEW020 29/14 Q1010 NOSIG
VVTS 040300Z 07008KT 9999 FEW020 28/14 Q1011 NOSIG
VVTS 040230Z 04007KT 360V070 9999 FEW020 27/15 Q1011 NOSIG
VVTS 040200Z 04008KT 010V080 9999 FEW020 27/15 Q1011 NOSIG
VVTS 040130Z 04008KT 020V080 9999 FEW020 26/15 Q1011 NOSIG
VVTS 040100Z 02005KT 340V060 9999 FEW020 24/15 Q1011 NOSIG
VVTS 040030Z 02005KT 350V050 9999 FEW020 23/16 Q1011 NOSIG
VVTS 040000Z 02005KT 340V040 9999 FEW020 23/16 Q1011 NOSIG
VVTS 032330Z 02005KT 340V040 9999 FEW020 22/16 Q1011 NOSIG
VVTS 032300Z 01005KT 330V030 9999 FEW020 22/16 Q1010 NOSIG
VVTS 032230Z 36005KT 9999 SCT020 22/16 Q1010 NOSIG
VVTS 032200Z 01004KT 9999 SCT020 22/16 Q1010 NOSIG
VVTS 032130Z 01004KT 9999 SCT020 22/16 Q1010 NOSIG
VVTS 032100Z 01005KT 9000 SCT020 22/16 Q1010 NOSIG
VVTS 032030Z 02007KT 9000 SCT020 23/16 Q1009 NOSIG
VVTS 032000Z 02006KT 9000 SCT020 23/16 Q1009 NOSIG
VVTS 031930Z 02006KT 340V050 9000 SCT020 23/16 Q1010 NOSIG
VVTS 031900Z 01006KT 340V040 9000 SCT020 23/17 Q1010 NOSIG
VVTS 031830Z 02005KT 9000 SCT020 23/16 Q1010 NOSIG
VVTS 031800Z 02005KT 9999 SCT020 24/17 Q1010 NOSIG
VVTS 031730Z VRB03KT 9999 SCT020 24/17 Q1010 NOSIG
VVTS 031700Z VRB02KT 9999 SCT020 24/17 Q1011 NOSIG
VVTS 031630Z VRB03KT 9999 FEW020 25/17 Q1011 NOSIG
VVTS 031600Z VRB03KT 9999 FEW020 25/17 Q1011 NOSIG
VVTS 031530Z 01005KT 9999 FEW020 26/17 Q1011 NOSIG
VVTS 031500Z 02006KT 350V050 9999 FEW020 26/17 Q1011 NOSIG
VVTS 031430Z 03007KT 9999 SCT020 27/16 Q1011 NOSIG
VVTS 031400Z 03007KT 9999 SCT020 27/16 Q1011 NOSIG
VVTS 031330Z 05007KT 9999 SCT020 27/17 Q1011 NOSIG
VVTS 031300Z 08004KT 050V120 9999 SCT020 28/18 Q1010 NOSIG
VVTS 031230Z 11007KT 9999 SCT020 28/22 Q1010 NOSIG
VVTS 031200Z 12005KT 100V160 9999 SCT020 29/22 Q1009 NOSIG
VVTS 031130Z 06004KT 040V100 9999 FEW020 30/18 Q1009 NOSIG
VVTS 031100Z 36005KT 9999 FEW020 30/18 Q1009 NOSIG
VVTS 031030Z 34005KT 310V020 9999 FEW020 31/18 Q1008 NOSIG
VVTS 031000Z VRB03KT 9999 FEW020 31/18 Q1008 NOSIG
VVTS 030930Z VRB03KT 9999 FEW017 32/18 Q1007 NOSIG
VVTS 030900Z 31005KT 240V360 9999 FEW017 32/16 Q1007 NOSIG
VVTS 030830Z 02004KT 320V060 9999 FEW017 33/17 Q1007 NOSIG
VVTS 030800Z VRB04KT 9999 FEW020 33/17 Q1007 NOSIG
VVTS 030730Z VRB05KT 9999 FEW020 32/17 Q1007 NOSIG
VVTS 030700Z 30004KT 220V010 9999 FEW020 32/18 Q1007 NOSIG
VVTS 030630Z 04004KT 320V120 9999 FEW020 32/18 Q1008 NOSIG
VVTS 030600Z VRB03KT 9999 FEW020 32/18 Q1008 NOSIG
VVTS 030530Z VRB02KT 9999 FEW020 32/18 Q1009 NOSIG
VVTS 030500Z 27004KT 190V320 9999 FEW020 31/17 Q1010 NOSIG
VVTS 030430Z 32004KT 260V050 9999 FEW020 31/18 Q1010 NOSIG
VVTS 030400Z VRB01KT 9999 FEW020 30/19 Q1011 NOSIG
VVTS 030330Z 05003KT CAVOK 30/19 Q1011 NOSIG
VVTS 030300Z VRB03KT CAVOK 29/19 Q1011 NOSIG
VVTS 030230Z 04004KT 350V080 CAVOK 28/20 Q1011 NOSIG
VVTS 030200Z 06006KT 020V100 9999 FEW020 27/19 Q1011 NOSIG
VVTS 030130Z 04005KT 010V080 9999 FEW020 27/19 Q1011 NOSIG
VVTS 030100Z 06004KT 020V080 9999 FEW020 25/19 Q1011 NOSIG
VVTS 030030Z 04004KT 010V070 9999 FEW020 25/19 Q1011 NOSIG
VVTS 030000Z VRB02KT 9999 FEW020 24/19 Q1010 NOSIG
VVTS 022330Z 05002KT 8000 FEW017 SCT050 23/20 Q1010 NOSIG
VVTS 022300Z 04003KT 8000 FEW017 SCT050 22/19 Q1009 NOSIG
VVTS 022230Z 02004KT 340V050 8000 FEW017 BKN050 23/19 Q1009 NOSIG
VVTS 022200Z 04003KT 8000 FEW017 BKN050 23/19 Q1009 NOSIG
VVTS 022130Z 02004KT 8000 FEW017 BKN050 23/19 Q1009 NOSIG
VVTS 022100Z 02005KT 9999 FEW017 BKN050 24/19 Q1009 NOSIG
VVTS 022030Z 35004KT 320V020 9999 FEW017 SCT050 24/19 Q1009 NOSIG
VVTS 022000Z 02004KT 350V050 9999 FEW017 SCT050 24/20 Q1009 NOSIG
VVTS 021930Z 03004KT 9999 FEW017 SCT050 24/20 Q1009 NOSIG
VVTS 021900Z 05004KT 9999 FEW017 SCT050 24/20 Q1009 NOSIG
VVTS 021830Z 06004KT 9999 FEW017 SCT050 24/20 Q1009 NOSIG
VVTS 021800Z 03005KT 9999 FEW017 BKN050 25/20 Q1010 NOSIG
VVTS 021730Z 03005KT 9999 FEW017 BKN050 25/20 Q1010 NOSIG
VVTS 021700Z 03005KT 360V060 9999 FEW017 BKN050 25/21 Q1011 NOSIG
VVTS 021630Z 02005KT 9999 FEW017 BKN050 26/21 Q1011 NOSIG
VVTS 021600Z 03005KT 360V060 9999 FEW017 BKN050 26/21 Q1011 NOSIG
VVTS 021530Z 03006KT 9999 FEW017 BKN050 27/21 Q1011 NOSIG
VVTS 021500Z 03007KT 9999 FEW017 BKN050 27/21 Q1011 NOSIG
VVTS 021430Z 03005KT 9999 FEW017 BKN050 28/21 Q1011 NOSIG
VVTS 021400Z 04006KT 9999 FEW017 BKN050 28/22 Q1011 NOSIG
VVTS 021330Z 05008KT 9999 SCT015 FEW017TCU 27/23 Q1011 NOSIG RMK TCU OVER RWY
VVTS 021300Z 02006KT 9999 SCT015 FEW017CB 28/22 Q1010 NOSIG
VVTS 021230Z VRB03KT 9999 SCT015 FEW017TCU 29/23 Q1010 NOSIG RMK TCU/NE
VVTS 021200Z 14005KT 100V180 9999 SCT015 FEW017TCU 29/23 Q1009 NOSIG RMK TCU/SW
VVTS 021130Z 17004KT 110V210 9999 SCT015 FEW017CB SCT050 29/24 Q1009 NOSIG RMK CB/SW/W
VVTS 021100Z VRB02KT 8000 -SHRA SCT015 FEW017CB SCT050 28/25 Q1008 TEMPO TL1115 5000 SHRA RMK CB OVER RWY
VVTS 021030Z 17004KT 130V210 9999 SCT015 FEW017CB 30/23 Q1008 TEMPO FM1040 TL1115 5000 SHRA RMK CB OVER RWY
VVTS 021000Z 13004KT 090V170 9999 SCT015 FEW017TCU 31/23 Q1007 NOSIG RMK TCU OVER RWY
VVTS 020930Z VRB01KT 9999 R25L/325V700 BKN020 32/23 Q1007 NOSIG
VVTS 020900Z VRB03KT 9999 BKN020 32/21 Q1007 NOSIG
VVTS 020830Z 05004KT 020V090 9999 BKN020 32/21 Q1007 NOSIG
VVTS 020800Z VRB02KT 9999 BKN020 33/21 Q1007 NOSIG
VVTS 020730Z VRB03KT 9999 BKN020 32/20 Q1007 NOSIG
VVTS 020700Z VRB04KT 9999 BKN020 33/21 Q1007 NOSIG
VVTS 020630Z VRB03KT 9999 SCT020 33/20 Q1008 NOSIG
VVTS 020600Z 12005KT 090V190 9999 SCT020 33/21 Q1009 NOSIG